createdAt,value
2018-09-04T00:01:26.317Z,10.07
2018-09-04T00:03:56.697Z,10.03
2018-09-04T00:06:27.726Z,13.70
2018-09-04T00:08:58.200Z,9.67
2018-09-04T00:11:28.769Z,12.70
2018-09-04T00:13:59.270Z,10.13
2018-09-04T00:16:29.895Z,10.43
2018-09-04T00:19:00.168Z,11.67
2018-09-04T00:21:30.742Z,9.13
2018-09-04T00:24:01.574Z,9.87
2018-09-04T00:26:32.384Z,9.87
2018-09-04T00:29:02.704Z,9.60
2018-09-04T00:31:33.221Z,10.60
2018-09-04T00:34:03.559Z,9.50
2018-09-04T00:36:37.194Z,10.13
2018-09-04T00:39:07.937Z,10.57
2018-09-04T00:41:38.258Z,10.60
2018-09-04T00:44:08.513Z,10.83
2018-09-04T00:46:38.913Z,10.20
2018-09-04T00:49:09.400Z,10.83
2018-09-04T00:51:39.880Z,10.23
2018-09-04T00:54:10.132Z,10.40
2018-09-04T00:56:40.640Z,10.47
2018-09-04T00:59:10.992Z,10.63
2018-09-04T01:01:42.374Z,9.73
2018-09-04T01:04:12.794Z,8.40
2018-09-04T01:06:43.239Z,9.47
2018-09-04T01:09:18.962Z,10.87
2018-09-04T01:11:49.292Z,10.33
2018-09-04T01:14:19.710Z,10.43
2018-09-04T01:16:50.021Z,11.03
2018-09-04T01:19:20.613Z,10.27
2018-09-04T01:21:50.953Z,10.73
2018-09-04T01:24:21.421Z,9.97
2018-09-04T01:26:51.749Z,15.03
2018-09-04T01:29:22.283Z,9.87
2018-09-04T01:31:52.470Z,8.90
2018-09-04T01:34:22.728Z,9.70
2018-09-04T01:36:53.152Z,10.43
2018-09-04T01:39:23.648Z,11.77
2018-09-04T01:41:53.858Z,9.50
2018-09-04T01:44:24.341Z,11.93
2018-09-04T01:46:54.887Z,9.47
2018-09-04T01:49:25.259Z,9.43
2018-09-04T01:51:55.599Z,11.73
2018-09-04T01:54:25.964Z,10.67
2018-09-04T01:56:56.490Z,9.43
2018-09-04T01:59:26.838Z,10.80
2018-09-04T02:01:57.415Z,14.30
2018-09-04T02:04:27.647Z,11.57
2018-09-04T02:06:58.030Z,11.60
2018-09-04T02:09:28.696Z,10.40
2018-09-04T02:11:59.220Z,9.63
2018-09-04T02:14:29.547Z,14.87
2018-09-04T02:17:01.517Z,10.93
2018-09-04T02:19:31.976Z,10.67
2018-09-04T02:22:02.335Z,9.90
2018-09-04T02:24:32.672Z,9.93
2018-09-04T02:27:02.922Z,10.77
2018-09-04T02:29:33.222Z,8.90
2018-09-04T02:32:03.622Z,11.33
2018-09-04T02:34:34.040Z,9.30
2018-09-04T02:37:04.415Z,10.03
2018-09-04T02:39:34.727Z,9.00
2018-09-04T02:42:05.226Z,7.93
2018-09-04T02:44:35.734Z,7.30
2018-09-04T02:47:06.228Z,6.10
2018-09-04T02:49:36.585Z,7.90
2018-09-04T02:52:07.113Z,7.03
2018-09-04T02:54:37.434Z,7.30
2018-09-04T02:57:07.834Z,7.00
2018-09-04T02:59:38.170Z,6.10
2018-09-04T03:02:08.428Z,6.63
2018-09-04T03:04:38.751Z,6.90
2018-09-04T03:07:09.164Z,6.83
2018-09-04T03:09:39.563Z,6.50
2018-09-04T03:12:10.191Z,6.77
2018-09-04T03:14:40.444Z,5.73
2018-09-04T03:17:10.729Z,5.13
2018-09-04T03:19:41.160Z,5.83
2018-09-04T03:22:11.618Z,5.20
2018-09-04T03:24:42.132Z,5.60
2018-09-04T03:27:12.491Z,7.70
2018-09-04T03:29:43.006Z,6.60
2018-09-04T03:32:13.536Z,6.13
2018-09-04T03:34:44.025Z,5.00
2018-09-04T03:37:14.677Z,5.80
2018-09-04T03:39:44.978Z,5.60
2018-09-04T03:42:16.520Z,5.27
2018-09-04T03:44:53.332Z,6.33
2018-09-04T03:47:23.668Z,4.97
2018-09-04T03:49:54.186Z,5.83
2018-09-04T03:52:24.837Z,5.10
2018-09-04T03:54:55.023Z,6.07
2018-09-04T03:57:25.399Z,5.30
2018-09-04T03:59:55.737Z,6.20
2018-09-04T04:02:26.321Z,7.50
2018-09-04T04:04:56.848Z,5.37
2018-09-04T04:07:27.181Z,5.83
2018-09-04T04:09:57.566Z,5.57
2018-09-04T04:12:27.854Z,5.23
2018-09-04T04:14:58.363Z,6.33
2018-09-04T04:17:28.854Z,6.03
2018-09-04T04:19:59.091Z,9.10
2018-09-04T04:22:29.339Z,4.90
2018-09-04T04:24:59.752Z,5.83
2018-09-04T04:27:30.063Z,4.23
2018-09-04T04:30:00.471Z,5.60
2018-09-04T04:32:30.698Z,5.70
2018-09-04T04:35:01.248Z,3.83
2018-09-04T04:37:31.727Z,4.37
2018-09-04T04:40:02.168Z,4.60
2018-09-04T04:42:32.421Z,5.80
2018-09-04T04:45:02.850Z,4.53
2018-09-04T04:47:38.047Z,4.10
2018-09-04T04:50:08.584Z,4.50
2018-09-04T04:52:39.589Z,6.13
2018-09-04T04:55:10.149Z,5.43
2018-09-04T04:57:40.432Z,5.53
2018-09-04T05:00:10.861Z,5.83
2018-09-04T05:02:41.563Z,4.50
2018-09-04T05:05:12.034Z,7.37
2018-09-04T05:07:42.471Z,4.50
2018-09-04T05:10:12.903Z,4.60
2018-09-04T05:12:43.270Z,5.50
2018-09-04T05:15:13.758Z,4.17
2018-09-04T05:17:44.159Z,5.40
2018-09-04T05:20:17.602Z,3.90
2018-09-04T05:22:47.990Z,4.80
2018-09-04T05:25:18.339Z,3.90
2018-09-04T05:27:48.610Z,7.73
2018-09-04T05:30:19.120Z,4.13
2018-09-04T05:32:59.361Z,7.00
2018-09-04T05:35:35.257Z,3.43
2018-09-04T05:38:05.714Z,5.97
2018-09-04T05:40:36.028Z,4.57
2018-09-04T05:43:08.118Z,5.10
2018-09-04T05:45:39.230Z,6.87
2018-09-04T05:48:11.470Z,6.03
2018-09-04T05:50:41.914Z,6.10
2018-09-04T05:53:12.480Z,6.63
2018-09-04T05:55:43.113Z,6.10
2018-09-04T05:58:13.590Z,6.83
2018-09-04T06:00:46.289Z,5.87
2018-09-04T06:03:17.859Z,6.23
2018-09-04T06:05:48.112Z,8.57
2018-09-04T06:08:18.608Z,8.30
2018-09-04T06:10:49.049Z,6.57
2018-09-04T06:13:19.555Z,6.00
2018-09-04T06:15:50.069Z,8.80
2018-09-04T06:18:20.601Z,6.63
2018-09-04T06:20:51.158Z,9.20
2018-09-04T06:23:21.376Z,5.63
2018-09-04T06:25:51.799Z,6.27
2018-09-04T06:28:22.345Z,6.70
2018-09-04T06:30:52.961Z,5.77
2018-09-04T06:33:23.379Z,6.23
2018-09-04T06:35:54.272Z,6.13
2018-09-04T06:38:24.666Z,7.40
2018-09-04T06:40:55.192Z,6.00
2018-09-04T06:43:25.394Z,6.67
2018-09-04T06:45:55.790Z,6.50
2018-09-04T06:48:26.574Z,9.97
2018-09-04T06:50:57.776Z,6.43
2018-09-04T06:53:28.305Z,6.80
2018-09-04T06:55:58.905Z,6.10
2018-09-04T06:58:29.310Z,5.73
2018-09-04T07:00:59.538Z,6.80
2018-09-04T07:03:29.862Z,7.47
2018-09-04T07:06:00.321Z,7.37
2018-09-04T07:08:30.863Z,7.00
2018-09-04T07:11:01.485Z,6.70
2018-09-04T07:13:31.751Z,7.20
2018-09-04T07:16:03.032Z,6.70
2018-09-04T07:18:33.352Z,6.70
2018-09-04T07:21:04.112Z,12.00
2018-09-04T07:23:35.371Z,15.03
2018-09-04T07:26:05.719Z,7.97
2018-09-04T07:28:35.959Z,7.27
2018-09-04T07:31:06.602Z,7.10
2018-09-04T07:33:37.092Z,6.43
2018-09-04T07:36:07.960Z,7.87
2018-09-04T07:38:38.352Z,6.10
2018-09-04T07:41:08.826Z,7.73
2018-09-04T07:43:39.484Z,8.20
2018-09-04T07:46:10.029Z,8.90
2018-09-04T07:48:40.683Z,7.40
2018-09-04T07:51:10.937Z,8.00
2018-09-04T07:53:41.402Z,7.00
2018-09-04T07:56:11.944Z,10.17
2018-09-04T07:58:42.403Z,8.30
2018-09-04T08:01:12.859Z,7.33
2018-09-04T08:03:43.156Z,7.40
2018-09-04T08:06:13.586Z,6.80
2018-09-04T08:08:43.986Z,7.10
2018-09-04T08:11:17.359Z,5.50
2018-09-04T08:13:47.835Z,6.93
2018-09-04T08:16:18.198Z,7.80
2018-09-04T08:18:48.472Z,8.23
2018-09-04T08:21:19.024Z,8.70
2018-09-04T08:23:49.555Z,9.57
2018-09-04T08:26:21.420Z,8.00
2018-09-04T08:28:51.941Z,8.63
2018-09-04T08:31:22.515Z,6.00
2018-09-04T08:33:52.890Z,6.67
2018-09-04T08:36:23.217Z,6.37
2018-09-04T08:38:53.707Z,6.07
2018-09-04T08:41:24.406Z,6.60
2018-09-04T08:43:54.664Z,7.20
2018-09-04T08:46:25.268Z,6.33
2018-09-04T08:48:55.648Z,7.47
2018-09-04T08:51:25.883Z,7.60
2018-09-04T08:53:56.576Z,8.37
2018-09-04T08:56:27.470Z,8.57
2018-09-04T08:58:58.109Z,7.10
2018-09-04T09:01:28.582Z,7.17
2018-09-04T09:03:58.970Z,7.57
2018-09-04T09:06:29.456Z,7.63
2018-09-04T09:09:00.098Z,8.40
2018-09-04T09:11:30.565Z,8.50
2018-09-04T09:14:01.163Z,8.60
2018-09-04T09:16:31.544Z,8.53
2018-09-04T09:19:02.123Z,8.90
2018-09-04T09:21:32.371Z,8.50
2018-09-04T09:24:02.781Z,8.13
2018-09-04T09:26:33.214Z,9.43
2018-09-04T09:29:10.260Z,8.60
2018-09-04T09:31:40.590Z,10.53
2018-09-04T09:34:11.270Z,9.40
2018-09-04T09:36:41.987Z,8.30
2018-09-04T09:39:12.189Z,12.33
2018-09-04T09:41:42.554Z,8.30
2018-09-04T09:44:13.049Z,9.63
2018-09-04T09:46:43.628Z,11.63
2018-09-04T09:49:14.164Z,17.20
2018-09-04T09:51:44.516Z,9.30
2018-09-04T09:54:14.855Z,8.87
2018-09-04T09:56:45.200Z,8.10
2018-09-04T09:59:15.594Z,7.67
2018-09-04T10:01:50.955Z,11.53
2018-09-04T10:04:21.740Z,7.80
2018-09-04T10:06:52.522Z,8.40
2018-09-04T10:09:23.055Z,8.70
2018-09-04T10:11:53.378Z,7.53
2018-09-04T10:14:23.949Z,8.70
2018-09-04T10:16:54.621Z,9.93
2018-09-04T10:19:25.213Z,6.67
2018-09-04T10:21:55.582Z,7.17
2018-09-04T10:24:26.105Z,6.60
2018-09-04T10:26:56.637Z,5.77
2018-09-04T10:29:27.431Z,7.30
2018-09-04T10:31:58.042Z,7.17
2018-09-04T10:34:28.552Z,6.90
2018-09-04T10:36:58.771Z,7.87
2018-09-04T10:39:34.383Z,7.50
2018-09-04T10:42:04.739Z,7.07
2018-09-04T10:44:35.888Z,7.00
2018-09-04T10:47:06.169Z,7.03
2018-09-04T10:49:36.517Z,7.60
2018-09-04T10:52:07.336Z,8.50
2018-09-04T10:54:37.876Z,6.90
2018-09-04T10:57:08.900Z,8.57
2018-09-04T10:59:39.519Z,6.80
2018-09-04T11:02:10.106Z,6.20
2018-09-04T11:04:40.687Z,6.70
2018-09-04T11:07:11.141Z,5.70
2018-09-04T11:09:41.737Z,5.87
2018-09-04T11:12:11.945Z,5.53
2018-09-04T11:14:42.293Z,5.50
2018-09-04T11:17:12.585Z,6.20
2018-09-04T11:19:42.908Z,6.20
2018-09-04T11:22:13.309Z,7.10
2018-09-04T11:24:43.931Z,7.17
2018-09-04T11:27:14.400Z,7.73
2018-09-04T11:29:45.013Z,6.60
2018-09-04T11:32:15.326Z,5.67
2018-09-04T11:34:45.632Z,6.10
2018-09-04T11:37:16.078Z,7.27
2018-09-04T11:39:46.482Z,7.60
2018-09-04T11:42:17.719Z,6.93
2018-09-04T11:44:48.142Z,5.53
2018-09-04T11:47:18.684Z,6.93
2018-09-04T11:49:49.240Z,6.30
2018-09-04T11:52:19.658Z,6.27
2018-09-04T11:54:50.138Z,6.50
2018-09-04T11:57:20.555Z,6.50
2018-09-04T11:59:51.441Z,6.90
2018-09-04T12:02:26.892Z,6.97
2018-09-04T12:04:57.206Z,7.17
2018-09-04T12:07:27.765Z,6.40
2018-09-04T12:09:58.231Z,7.30
2018-09-04T12:12:33.208Z,7.20
2018-09-04T12:15:03.559Z,6.77
2018-09-04T12:17:33.874Z,7.17
2018-09-04T12:21:09.631Z,6.70
2018-09-04T12:23:40.423Z,6.93
2018-09-04T12:26:11.841Z,7.57
2018-09-04T12:28:42.277Z,5.87
2018-09-04T12:31:12.931Z,6.07
2018-09-04T12:33:43.470Z,7.10
2018-09-04T12:36:13.977Z,8.13
2018-09-04T12:38:44.683Z,13.57
2018-09-04T12:41:15.359Z,7.00
2018-09-04T12:43:45.844Z,6.73
2018-09-04T12:46:16.003Z,7.97
2018-09-04T12:48:50.572Z,6.00
2018-09-04T12:51:21.370Z,6.83
2018-09-04T12:53:51.705Z,7.40
2018-09-04T12:56:22.018Z,5.93
2018-09-04T12:58:52.528Z,5.27
2018-09-04T13:01:23.041Z,8.70
2018-09-04T13:03:53.602Z,5.50
2018-09-04T13:06:23.920Z,6.13
2018-09-04T13:08:54.608Z,7.10
2018-09-04T13:11:25.008Z,12.27
2018-09-04T13:13:55.635Z,6.07
2018-09-04T13:16:26.225Z,7.10
2018-09-04T13:18:56.599Z,5.53
2018-09-04T13:21:27.111Z,6.27
2018-09-04T13:23:57.588Z,7.40
2018-09-04T13:26:28.120Z,6.37
2018-09-04T13:28:58.763Z,6.67
2018-09-04T13:31:29.296Z,7.03
2018-09-04T13:33:59.607Z,7.20
2018-09-04T13:36:30.100Z,6.43
2018-09-04T13:39:00.408Z,5.60
2018-09-04T13:41:33.467Z,7.00
2018-09-04T13:44:04.092Z,5.50
2018-09-04T13:46:34.402Z,8.23
2018-09-04T13:49:05.172Z,5.90
2018-09-04T13:51:35.930Z,5.77
2018-09-04T13:54:06.022Z,6.07
2018-09-04T13:56:36.164Z,7.93
2018-09-04T13:59:06.210Z,6.07
2018-09-04T14:01:36.768Z,6.27
2018-09-04T14:04:07.242Z,6.47
2018-09-04T14:06:37.288Z,7.03
2018-09-04T14:09:08.657Z,6.37
2018-09-04T14:11:39.524Z,5.73
2018-09-04T14:14:09.983Z,6.60
2018-09-04T14:16:43.150Z,6.60
2018-09-04T14:19:11.612Z,5.83
2018-09-04T14:21:42.232Z,6.03
2018-09-04T14:24:12.489Z,7.00
2018-09-04T14:26:42.723Z,9.13
2018-09-04T14:29:53.160Z,6.37
2018-09-04T14:31:43.809Z,7.30
2018-09-04T14:34:14.380Z,6.27
2018-09-04T14:36:45.048Z,5.93
2018-09-04T14:39:15.345Z,6.03
2018-09-04T14:41:45.357Z,7.73
2018-09-04T14:44:15.386Z,5.40
2018-09-04T14:46:46.264Z,6.20
2018-09-04T14:49:16.376Z,7.40
2018-09-04T14:51:46.696Z,7.20
2018-09-04T14:54:16.640Z,5.40
2018-09-04T14:56:46.673Z,6.80
2018-09-04T14:59:16.753Z,7.03
2018-09-04T15:01:50.933Z,7.03
2018-09-04T15:04:21.033Z,7.60
2018-09-04T15:06:50.975Z,6.37
2018-09-04T15:09:20.893Z,5.97
2018-09-04T15:11:50.845Z,7.03
2018-09-04T15:14:20.776Z,6.50
2018-09-04T15:16:51.436Z,6.00
2018-09-04T15:19:21.368Z,7.30
2018-09-04T15:21:51.314Z,7.07
2018-09-04T15:24:21.210Z,6.60
2018-09-04T15:26:51.433Z,6.40
2018-09-04T15:29:21.467Z,6.63
2018-09-04T15:31:51.414Z,8.30
2018-09-04T15:34:21.363Z,7.87
2018-09-04T15:36:51.344Z,6.47
2018-09-04T15:39:21.313Z,7.83
2018-09-04T15:41:51.282Z,7.13
2018-09-04T15:44:21.285Z,7.53
2018-09-04T15:46:51.235Z,7.33
2018-09-04T15:49:26.300Z,7.73
2018-09-04T15:51:56.318Z,7.87
2018-09-04T15:54:26.708Z,6.53
2018-09-04T15:56:56.696Z,6.93
2018-09-04T15:59:26.700Z,13.13
2018-09-04T16:01:57.025Z,6.83
2018-09-04T16:04:27.396Z,8.30
2018-09-04T16:06:57.828Z,6.63
2018-09-04T16:09:28.386Z,5.90
2018-09-04T16:11:58.915Z,6.90
2018-09-04T16:14:29.677Z,7.10
2018-09-04T16:17:00.201Z,6.30
2018-09-04T16:19:30.759Z,7.03
2018-09-04T16:22:02.139Z,7.70
2018-09-04T16:24:32.660Z,8.27
2018-09-04T16:27:08.468Z,7.53
2018-09-04T16:29:39.753Z,7.20
2018-09-04T16:32:16.932Z,7.77
2018-09-04T16:34:47.004Z,8.00
2018-09-04T16:37:16.958Z,7.50
2018-09-04T16:39:46.938Z,8.13
2018-09-04T16:42:16.955Z,7.27
2018-09-04T16:44:47.311Z,8.73
2018-09-04T16:47:20.263Z,7.17
2018-09-04T16:49:50.952Z,8.90
2018-09-04T16:52:21.481Z,8.30
2018-09-04T16:54:52.410Z,7.50
2018-09-04T16:57:22.812Z,7.53
2018-09-04T16:59:53.286Z,9.40
2018-09-04T17:02:24.121Z,7.10
2018-09-04T17:04:54.460Z,7.47
2018-09-04T17:07:26.354Z,7.90
2018-09-04T17:09:56.903Z,7.60
2018-09-04T17:12:27.507Z,8.87
2018-09-04T17:14:57.989Z,9.27
2018-09-04T17:17:28.398Z,9.77
2018-09-04T17:19:59.049Z,13.43
2018-09-04T17:22:29.638Z,9.53
2018-09-04T17:25:00.109Z,7.60
2018-09-04T17:27:30.831Z,9.60
2018-09-04T17:30:01.198Z,11.33
2018-09-04T17:32:31.756Z,6.47
2018-09-04T17:35:05.764Z,6.20
2018-09-04T17:37:36.192Z,7.00
2018-09-04T17:40:06.638Z,9.00
2018-09-04T17:42:37.296Z,5.70
2018-09-04T17:45:07.725Z,7.30
2018-09-04T17:47:38.222Z,16.03
2018-09-04T17:50:08.709Z,35.43
2018-09-04T17:52:39.013Z,21.30
2018-09-04T17:55:09.006Z,12.20
2018-09-04T17:57:39.399Z,11.47
2018-09-04T18:00:09.807Z,6.70
2018-09-04T18:02:39.796Z,7.43
2018-09-04T18:05:09.827Z,7.23
2018-09-04T18:07:39.967Z,8.50
2018-09-04T18:10:09.983Z,7.33
2018-09-04T18:12:40.166Z,7.07
2018-09-04T18:15:10.489Z,10.23
2018-09-04T18:17:41.345Z,20.77
2018-09-04T18:20:11.774Z,8.43
2018-09-04T18:22:42.802Z,17.30
2018-09-04T18:25:13.583Z,13.00
2018-09-04T18:27:44.264Z,9.17
2018-09-04T18:30:14.786Z,8.40
2018-09-04T18:32:45.295Z,8.13
2018-09-04T18:35:15.933Z,9.70
2018-09-04T18:37:46.279Z,8.17
2018-09-04T18:40:16.767Z,9.97
2018-09-04T18:42:48.092Z,9.17
2018-09-04T18:45:52.389Z,9.23
2018-09-04T18:48:22.934Z,8.40
2018-09-04T18:50:53.286Z,10.80
2018-09-04T18:53:23.695Z,8.67
2018-09-04T18:55:54.147Z,9.93
2018-09-04T18:58:25.358Z,8.10
2018-09-04T19:00:55.959Z,8.70
2018-09-04T19:03:26.534Z,8.03
2018-09-04T19:05:56.907Z,11.60
2018-09-04T19:08:27.346Z,13.87
2018-09-04T19:10:57.777Z,17.43
2018-09-04T19:13:28.307Z,14.30
2018-09-04T19:15:58.728Z,12.60
2018-09-04T19:18:29.262Z,12.73
2018-09-04T19:21:30.960Z,9.63
2018-09-04T19:24:01.579Z,10.07
2018-09-04T19:26:32.067Z,9.40
2018-09-04T19:29:03.093Z,8.80
2018-09-04T19:31:33.519Z,7.70
2018-09-04T19:34:04.334Z,8.63
2018-09-04T19:36:34.836Z,9.97
2018-09-04T19:39:11.013Z,8.00
2018-09-04T19:41:42.349Z,8.40
2018-09-04T19:44:12.947Z,7.77
2018-09-04T19:46:43.253Z,8.77
2018-09-04T19:49:13.809Z,15.70
2018-09-04T19:51:44.228Z,7.17
2018-09-04T19:54:15.329Z,7.80
2018-09-04T19:56:45.759Z,8.20
2018-09-04T19:59:16.358Z,8.10
2018-09-04T20:01:46.764Z,11.70
2018-09-04T20:04:17.119Z,15.20
2018-09-04T20:06:47.696Z,17.23
2018-09-04T20:09:18.354Z,12.37
2018-09-04T20:11:48.836Z,27.90
2018-09-04T20:14:19.275Z,15.73
2018-09-04T20:16:49.730Z,9.70
2018-09-04T20:19:20.355Z,8.87
2018-09-04T20:21:50.815Z,10.47
2018-09-04T20:24:21.291Z,8.90
2018-09-04T20:26:51.827Z,12.97
2018-09-04T20:29:22.232Z,10.57
2018-09-04T20:31:52.650Z,15.20
2018-09-04T20:34:23.218Z,29.90
2018-09-04T20:36:53.655Z,15.53
2018-09-04T20:39:23.910Z,9.27
2018-09-04T20:41:54.491Z,9.10
2018-09-04T20:44:24.841Z,7.70
2018-09-04T20:46:55.289Z,7.93
2018-09-04T20:49:25.759Z,7.00
2018-09-04T20:51:56.244Z,7.50
2018-09-04T20:54:26.525Z,7.53
2018-09-04T20:57:34.237Z,8.00
2018-09-04T21:00:22.346Z,9.30
2018-09-04T21:03:09.088Z,8.57
2018-09-04T21:05:55.984Z,7.90
2018-09-04T21:08:56.877Z,8.67
2018-09-04T21:11:27.382Z,7.73
2018-09-04T21:13:57.725Z,7.67
2018-09-04T21:16:28.268Z,9.23
2018-09-04T21:18:58.744Z,9.47
2018-09-04T21:21:30.223Z,7.83
2018-09-04T21:24:00.717Z,8.20
2018-09-04T21:26:31.096Z,7.53
2018-09-04T21:29:01.821Z,8.40
2018-09-04T21:31:32.227Z,7.20
2018-09-04T21:34:02.430Z,7.27
2018-09-04T21:36:32.964Z,6.37
2018-09-04T21:39:03.389Z,8.50
2018-09-04T21:41:33.719Z,8.27
2018-09-04T21:44:04.102Z,7.80
2018-09-04T21:46:34.791Z,9.20
2018-09-04T21:49:05.162Z,8.13
2018-09-04T21:51:35.407Z,8.60
2018-09-04T21:54:05.804Z,7.63
2018-09-04T21:56:36.271Z,11.40
2018-09-04T21:59:06.799Z,9.20
2018-09-04T22:01:37.223Z,7.03
2018-09-04T22:04:07.728Z,7.90
2018-09-04T22:06:38.062Z,9.00
2018-09-04T22:09:08.940Z,6.43
2018-09-04T22:11:39.488Z,6.70
2018-09-04T22:14:09.896Z,8.77
2018-09-04T22:16:40.204Z,6.47
2018-09-04T22:19:10.635Z,6.33
2018-09-04T22:21:40.977Z,6.00
2018-09-04T22:24:11.379Z,6.90
2018-09-04T22:26:41.795Z,7.03
2018-09-04T22:29:11.978Z,5.83
2018-09-04T22:31:42.359Z,6.93
2018-09-04T22:34:12.699Z,9.60
2018-09-04T22:36:42.974Z,6.37
2018-09-04T22:39:13.460Z,7.27
2018-09-04T22:41:43.779Z,7.70
2018-09-04T22:44:14.460Z,7.10
2018-09-04T22:46:44.900Z,6.63
2018-09-04T22:49:15.193Z,6.00
2018-09-04T22:51:45.711Z,7.23
2018-09-04T22:54:16.659Z,6.17
2018-09-04T22:56:46.901Z,7.40
2018-09-04T22:59:17.282Z,8.30
2018-09-04T23:01:47.682Z,9.60
2018-09-04T23:04:18.143Z,6.30
2018-09-04T23:06:48.364Z,7.30
2018-09-04T23:09:18.947Z,7.60
2018-09-04T23:11:49.289Z,7.30
2018-09-04T23:14:20.090Z,6.77
2018-09-04T23:16:50.450Z,7.77
2018-09-04T23:19:20.871Z,7.53
2018-09-04T23:21:51.381Z,9.47
2018-09-04T23:24:24.402Z,8.27
2018-09-04T23:26:54.617Z,7.30
2018-09-04T23:29:25.935Z,7.30
2018-09-04T23:31:56.429Z,7.20
2018-09-04T23:34:26.729Z,7.20
2018-09-04T23:36:57.025Z,7.57
2018-09-04T23:39:27.414Z,6.70
2018-09-04T23:41:57.796Z,7.13
2018-09-04T23:44:28.287Z,8.37
2018-09-04T23:46:58.499Z,9.83
2018-09-04T23:49:29.382Z,7.47
2018-09-04T23:51:59.647Z,7.67
2018-09-04T23:54:30.158Z,9.33
2018-09-04T23:57:00.485Z,7.30
2018-09-04T23:59:30.990Z,8.70
